sensor_id;sensor_type;location;lat;lon;timestamp;pressure;altitude;pressure_sealevel;temperature
65569;BMP180;52211;50.154;8.682;2022-09-23T00:01:44;100373.00;;;15.10
65569;BMP180;52211;50.154;8.682;2022-09-23T00:04:12;100372.00;;;15.10
65569;BMP180;52211;50.154;8.682;2022-09-23T00:06:41;100372.00;;;15.10
65569;BMP180;52211;50.154;8.682;2022-09-23T00:09:11;100376.00;;;15.10
65569;BMP180;52211;50.154;8.682;2022-09-23T00:11:40;100368.00;;;15.10
65569;BMP180;52211;50.154;8.682;2022-09-23T00:14:08;100372.00;;;15.10
65569;BMP180;52211;50.154;8.682;2022-09-23T00:16:35;100367.00;;;15.10
65569;BMP180;52211;50.154;8.682;2022-09-23T00:19:07;100376.00;;;15.10
65569;BMP180;52211;50.154;8.682;2022-09-23T00:21:34;100372.00;;;15.10
65569;BMP180;52211;50.154;8.682;2022-09-23T00:24:06;100363.00;;;15.10
65569;BMP180;52211;50.154;8.682;2022-09-23T00:26:33;100363.00;;;15.10
65569;BMP180;52211;50.154;8.682;2022-09-23T00:29:00;100369.00;;;15.10
65569;BMP180;52211;50.154;8.682;2022-09-23T00:31:29;100368.00;;;15.00
65569;BMP180;52211;50.154;8.682;2022-09-23T00:34:00;100365.00;;;15.00
65569;BMP180;52211;50.154;8.682;2022-09-23T00:36:28;100362.00;;;15.00
65569;BMP180;52211;50.154;8.682;2022-09-23T00:38:58;100365.00;;;15.00
65569;BMP180;52211;50.154;8.682;2022-09-23T00:41:26;100364.00;;;14.90
65569;BMP180;52211;50.154;8.682;2022-09-23T00:44:00;100363.00;;;14.90
65569;BMP180;52211;50.154;8.682;2022-09-23T00:46:41;100360.00;;;14.80
65569;BMP180;52211;50.154;8.682;2022-09-23T00:49:28;100360.00;;;14.80
65569;BMP180;52211;50.154;8.682;2022-09-23T00:52:09;100362.00;;;14.80
65569;BMP180;52211;50.154;8.682;2022-09-23T00:54:38;100358.00;;;14.80
65569;BMP180;52211;50.154;8.682;2022-09-23T00:57:05;100362.00;;;14.80
65569;BMP180;52211;50.154;8.682;2022-09-23T00:59:34;100358.00;;;14.70
65569;BMP180;52211;50.154;8.682;2022-09-23T01:02:03;100354.00;;;14.70
65569;BMP180;52211;50.154;8.682;2022-09-23T01:04:33;100350.00;;;14.70
65569;BMP180;52211;50.154;8.682;2022-09-23T01:07:02;100346.00;;;14.70
65569;BMP180;52211;50.154;8.682;2022-09-23T01:09:29;100344.00;;;14.70
65569;BMP180;52211;50.154;8.682;2022-09-23T01:33:14;100334.00;;;14.30
65569;BMP180;52211;50.154;8.682;2022-09-23T01:36:15;100330.00;;;14.30
65569;BMP180;52211;50.154;8.682;2022-09-23T01:39:13;100326.00;;;14.30
65569;BMP180;52211;50.154;8.682;2022-09-23T01:42:16;100334.00;;;14.30
65569;BMP180;52211;50.154;8.682;2022-09-23T01:44:58;100332.00;;;14.30
65569;BMP180;52211;50.154;8.682;2022-09-23T01:47:35;100321.00;;;14.30
65569;BMP180;52211;50.154;8.682;2022-09-23T01:50:13;100319.00;;;14.30
65569;BMP180;52211;50.154;8.682;2022-09-23T01:53:06;100320.00;;;14.20
65569;BMP180;52211;50.154;8.682;2022-09-23T01:55:43;100314.00;;;14.20
65569;BMP180;52211;50.154;8.682;2022-09-23T02:01:06;100321.00;;;14.20
65569;BMP180;52211;50.154;8.682;2022-09-23T02:06:55;100305.00;;;14.20
65569;BMP180;52211;50.154;8.682;2022-09-23T02:09:39;100314.00;;;14.20
65569;BMP180;52211;50.154;8.682;2022-09-23T02:12:14;100319.00;;;14.20
65569;BMP180;52211;50.154;8.682;2022-09-23T02:14:52;100310.00;;;14.20
65569;BMP180;52211;50.154;8.682;2022-09-23T02:17:50;100318.00;;;14.10
65569;BMP180;52211;50.154;8.682;2022-09-23T02:20:31;100311.00;;;14.20
65569;BMP180;52211;50.154;8.682;2022-09-23T02:23:04;100304.00;;;14.20
65569;BMP180;52211;50.154;8.682;2022-09-23T02:26:20;100304.00;;;14.10
65569;BMP180;52211;50.154;8.682;2022-09-23T02:28:54;100303.00;;;14.10
65569;BMP180;52211;50.154;8.682;2022-09-23T02:31:37;100306.00;;;14.10
65569;BMP180;52211;50.154;8.682;2022-09-23T02:34:47;100300.00;;;14.10
65569;BMP180;52211;50.154;8.682;2022-09-23T02:40:56;100297.00;;;14.10
65569;BMP180;52211;50.154;8.682;2022-09-23T02:43:31;100296.00;;;14.00
65569;BMP180;52211;50.154;8.682;2022-09-23T02:46:05;100293.00;;;14.00
65569;BMP180;52211;50.154;8.682;2022-09-23T02:48:39;100297.00;;;14.00
65569;BMP180;52211;50.154;8.682;2022-09-23T02:51:09;100294.00;;;14.00
65569;BMP180;52211;50.154;8.682;2022-09-23T02:53:39;100290.00;;;14.00
65569;BMP180;52211;50.154;8.682;2022-09-23T02:56:20;100280.00;;;14.00
65569;BMP180;52211;50.154;8.682;2022-09-23T02:58:52;100282.00;;;14.00
65569;BMP180;52211;50.154;8.682;2022-09-23T03:07:44;100272.00;;;13.90
65569;BMP180;52211;50.154;8.682;2022-09-23T03:10:59;100269.00;;;13.90
65569;BMP180;52211;50.154;8.682;2022-09-23T03:19:32;100261.00;;;13.80
65569;BMP180;52211;50.154;8.682;2022-09-23T03:22:33;100265.00;;;13.80
65569;BMP180;52211;50.154;8.682;2022-09-23T03:25:09;100260.00;;;13.80
65569;BMP180;52211;50.154;8.682;2022-09-23T03:27:43;100253.00;;;13.80
65569;BMP180;52211;50.154;8.682;2022-09-23T03:30:13;100266.00;;;13.80
65569;BMP180;52211;50.154;8.682;2022-09-23T03:32:44;100270.00;;;13.80
65569;BMP180;52211;50.154;8.682;2022-09-23T03:35:13;100258.00;;;13.80
65569;BMP180;52211;50.154;8.682;2022-09-23T03:37:50;100268.00;;;13.80
65569;BMP180;52211;50.154;8.682;2022-09-23T03:40:36;100259.00;;;13.80
65569;BMP180;52211;50.154;8.682;2022-09-23T03:43:10;100266.00;;;13.80
65569;BMP180;52211;50.154;8.682;2022-09-23T03:45:39;100256.00;;;13.80
65569;BMP180;52211;50.154;8.682;2022-09-23T03:48:11;100261.00;;;13.80
65569;BMP180;52211;50.154;8.682;2022-09-23T03:50:40;100252.00;;;13.80
65569;BMP180;52211;50.154;8.682;2022-09-23T03:53:07;100254.00;;;13.80
65569;BMP180;52211;50.154;8.682;2022-09-23T03:55:39;100255.00;;;13.80
65569;BMP180;52211;50.154;8.682;2022-09-23T03:58:08;100258.00;;;13.80
65569;BMP180;52211;50.154;8.682;2022-09-23T04:00:37;100248.00;;;13.80
65569;BMP180;52211;50.154;8.682;2022-09-23T04:03:07;100247.00;;;13.80
65569;BMP180;52211;50.154;8.682;2022-09-23T04:05:42;100251.00;;;13.80
65569;BMP180;52211;50.154;8.682;2022-09-23T04:08:10;100239.00;;;13.80
65569;BMP180;52211;50.154;8.682;2022-09-23T04:10:42;100242.00;;;13.80
65569;BMP180;52211;50.154;8.682;2022-09-23T04:13:09;100240.00;;;13.80
65569;BMP180;52211;50.154;8.682;2022-09-23T04:15:38;100244.00;;;13.80
65569;BMP180;52211;50.154;8.682;2022-09-23T04:18:05;100246.00;;;13.80
65569;BMP180;52211;50.154;8.682;2022-09-23T04:20:34;100245.00;;;13.70
65569;BMP180;52211;50.154;8.682;2022-09-23T04:23:03;100239.00;;;13.70
65569;BMP180;52211;50.154;8.682;2022-09-23T04:25:30;100243.00;;;13.70
65569;BMP180;52211;50.154;8.682;2022-09-23T04:27:57;100243.00;;;13.70
65569;BMP180;52211;50.154;8.682;2022-09-23T04:30:24;100240.00;;;13.70
65569;BMP180;52211;50.154;8.682;2022-09-23T04:32:52;100239.00;;;13.70
65569;BMP180;52211;50.154;8.682;2022-09-23T04:35:19;100234.00;;;13.70
65569;BMP180;52211;50.154;8.682;2022-09-23T04:37:47;100241.00;;;13.60
65569;BMP180;52211;50.154;8.682;2022-09-23T04:40:14;100239.00;;;13.60
65569;BMP180;52211;50.154;8.682;2022-09-23T04:42:46;100238.00;;;13.60
65569;BMP180;52211;50.154;8.682;2022-09-23T04:45:16;100241.00;;;13.60
65569;BMP180;52211;50.154;8.682;2022-09-23T04:47:45;100241.00;;;13.60
65569;BMP180;52211;50.154;8.682;2022-09-23T04:50:13;100246.00;;;13.50
65569;BMP180;52211;50.154;8.682;2022-09-23T04:52:45;100241.00;;;13.50
65569;BMP180;52211;50.154;8.682;2022-09-23T04:55:15;100239.00;;;13.50
65569;BMP180;52211;50.154;8.682;2022-09-23T04:57:41;100232.00;;;13.50
65569;BMP180;52211;50.154;8.682;2022-09-23T05:00:11;100237.00;;;13.40
65569;BMP180;52211;50.154;8.682;2022-09-23T05:02:45;100227.00;;;13.40
65569;BMP180;52211;50.154;8.682;2022-09-23T05:05:17;100228.00;;;13.40
65569;BMP180;52211;50.154;8.682;2022-09-23T05:07:47;100232.00;;;13.40
65569;BMP180;52211;50.154;8.682;2022-09-23T05:10:17;100227.00;;;13.40
65569;BMP180;52211;50.154;8.682;2022-09-23T05:12:47;100230.00;;;13.40
65569;BMP180;52211;50.154;8.682;2022-09-23T05:15:16;100225.00;;;13.40
65569;BMP180;52211;50.154;8.682;2022-09-23T05:17:46;100231.00;;;13.40
65569;BMP180;52211;50.154;8.682;2022-09-23T05:20:20;100230.00;;;13.40
65569;BMP180;52211;50.154;8.682;2022-09-23T05:22:47;100238.00;;;13.40
65569;BMP180;52211;50.154;8.682;2022-09-23T05:25:17;100231.00;;;13.40
65569;BMP180;52211;50.154;8.682;2022-09-23T05:27:45;100236.00;;;13.40
65569;BMP180;52211;50.154;8.682;2022-09-23T05:30:12;100234.00;;;13.40
65569;BMP180;52211;50.154;8.682;2022-09-23T05:32:39;100237.00;;;13.50
65569;BMP180;52211;50.154;8.682;2022-09-23T05:35:06;100238.00;;;13.50
65569;BMP180;52211;50.154;8.682;2022-09-23T05:37:38;100236.00;;;13.50
65569;BMP180;52211;50.154;8.682;2022-09-23T05:40:07;100240.00;;;13.50
65569;BMP180;52211;50.154;8.682;2022-09-23T05:42:39;100246.00;;;13.60
65569;BMP180;52211;50.154;8.682;2022-09-23T05:45:07;100245.00;;;13.60
65569;BMP180;52211;50.154;8.682;2022-09-23T05:47:38;100246.00;;;13.60
65569;BMP180;52211;50.154;8.682;2022-09-23T05:50:09;100252.00;;;13.70
65569;BMP180;52211;50.154;8.682;2022-09-23T05:52:36;100248.00;;;13.70
65569;BMP180;52211;50.154;8.682;2022-09-23T05:55:03;100249.00;;;13.70
65569;BMP180;52211;50.154;8.682;2022-09-23T05:57:30;100253.00;;;13.70
65569;BMP180;52211;50.154;8.682;2022-09-23T06:00:00;100255.00;;;13.70
65569;BMP180;52211;50.154;8.682;2022-09-23T06:02:29;100255.00;;;13.80
65569;BMP180;52211;50.154;8.682;2022-09-23T06:04:56;100250.00;;;13.70
65569;BMP180;52211;50.154;8.682;2022-09-23T06:07:23;100248.00;;;13.70
65569;BMP180;52211;50.154;8.682;2022-09-23T06:09:51;100253.00;;;13.70
65569;BMP180;52211;50.154;8.682;2022-09-23T06:12:21;100251.00;;;13.80
65569;BMP180;52211;50.154;8.682;2022-09-23T06:14:48;100248.00;;;13.80
65569;BMP180;52211;50.154;8.682;2022-09-23T06:17:18;100251.00;;;13.90
65569;BMP180;52211;50.154;8.682;2022-09-23T06:19:45;100255.00;;;13.90
65569;BMP180;52211;50.154;8.682;2022-09-23T06:22:11;100247.00;;;14.00
65569;BMP180;52211;50.154;8.682;2022-09-23T06:24:42;100250.00;;;14.00
65569;BMP180;52211;50.154;8.682;2022-09-23T06:27:13;100238.00;;;14.10
65569;BMP180;52211;50.154;8.682;2022-09-23T06:29:43;100249.00;;;14.10
65569;BMP180;52211;50.154;8.682;2022-09-23T06:32:12;100244.00;;;14.20
65569;BMP180;52211;50.154;8.682;2022-09-23T06:34:38;100238.00;;;14.20
65569;BMP180;52211;50.154;8.682;2022-09-23T06:37:17;100241.00;;;14.30
65569;BMP180;52211;50.154;8.682;2022-09-23T06:39:49;100230.00;;;14.30
65569;BMP180;52211;50.154;8.682;2022-09-23T06:42:16;100235.00;;;14.30
65569;BMP180;52211;50.154;8.682;2022-09-23T06:44:45;100231.00;;;14.40
65569;BMP180;52211;50.154;8.682;2022-09-23T06:47:12;100233.00;;;14.40
65569;BMP180;52211;50.154;8.682;2022-09-23T06:49:38;100232.00;;;14.50
65569;BMP180;52211;50.154;8.682;2022-09-23T06:52:05;100236.00;;;14.50
65569;BMP180;52211;50.154;8.682;2022-09-23T06:54:32;100247.00;;;14.60
65569;BMP180;52211;50.154;8.682;2022-09-23T06:57:01;100233.00;;;14.60
65569;BMP180;52211;50.154;8.682;2022-09-23T06:59:30;100233.00;;;14.70
65569;BMP180;52211;50.154;8.682;2022-09-23T07:01:57;100232.00;;;14.70
65569;BMP180;52211;50.154;8.682;2022-09-23T07:04:27;100232.00;;;14.80
65569;BMP180;52211;50.154;8.682;2022-09-23T07:06:57;100235.00;;;14.80
65569;BMP180;52211;50.154;8.682;2022-09-23T07:09:24;100237.00;;;14.90
65569;BMP180;52211;50.154;8.682;2022-09-23T07:11:53;100243.00;;;14.90
65569;BMP180;52211;50.154;8.682;2022-09-23T07:14:23;100247.00;;;15.00
65569;BMP180;52211;50.154;8.682;2022-09-23T07:16:52;100244.00;;;15.00
65569;BMP180;52211;50.154;8.682;2022-09-23T07:19:21;100243.00;;;15.10
65569;BMP180;52211;50.154;8.682;2022-09-23T07:21:48;100243.00;;;15.10
65569;BMP180;52211;50.154;8.682;2022-09-23T07:24:17;100240.00;;;15.10
65569;BMP180;52211;50.154;8.682;2022-09-23T07:26:46;100241.00;;;15.20
65569;BMP180;52211;50.154;8.682;2022-09-23T07:29:15;100237.00;;;15.20
65569;BMP180;52211;50.154;8.682;2022-09-23T07:31:42;100234.00;;;15.20
65569;BMP180;52211;50.154;8.682;2022-09-23T07:34:09;100242.00;;;15.30
65569;BMP180;52211;50.154;8.682;2022-09-23T07:36:38;100235.00;;;15.30
65569;BMP180;52211;50.154;8.682;2022-09-23T07:39:11;100220.00;;;15.40
65569;BMP180;52211;50.154;8.682;2022-09-23T07:41:38;100224.00;;;15.40
65569;BMP180;52211;50.154;8.682;2022-09-23T07:44:10;100223.00;;;15.40
65569;BMP180;52211;50.154;8.682;2022-09-23T07:46:40;100224.00;;;15.50
65569;BMP180;52211;50.154;8.682;2022-09-23T07:49:09;100229.00;;;15.50
65569;BMP180;52211;50.154;8.682;2022-09-23T07:51:40;100233.00;;;15.50
65569;BMP180;52211;50.154;8.682;2022-09-23T07:54:12;100228.00;;;15.60
65569;BMP180;52211;50.154;8.682;2022-09-23T07:56:45;100235.00;;;15.60
65569;BMP180;52211;50.154;8.682;2022-09-23T07:59:17;100239.00;;;15.60
65569;BMP180;52211;50.154;8.682;2022-09-23T08:01:50;100236.00;;;15.70
65569;BMP180;52211;50.154;8.682;2022-09-23T08:04:29;100232.00;;;15.70
65569;BMP180;52211;50.154;8.682;2022-09-23T08:06:59;100233.00;;;15.70
65569;BMP180;52211;50.154;8.682;2022-09-23T08:09:35;100230.00;;;15.80
65569;BMP180;52211;50.154;8.682;2022-09-23T08:12:05;100232.00;;;15.80
65569;BMP180;52211;50.154;8.682;2022-09-23T08:14:31;100238.00;;;15.90
65569;BMP180;52211;50.154;8.682;2022-09-23T08:16:58;100240.00;;;16.00
65569;BMP180;52211;50.154;8.682;2022-09-23T08:19:25;100237.00;;;16.00
65569;BMP180;52211;50.154;8.682;2022-09-23T08:21:52;100238.00;;;16.10
65569;BMP180;52211;50.154;8.682;2022-09-23T08:24:29;100233.00;;;16.10
65569;BMP180;52211;50.154;8.682;2022-09-23T08:26:57;100237.00;;;16.20
65569;BMP180;52211;50.154;8.682;2022-09-23T08:29:25;100235.00;;;16.30
65569;BMP180;52211;50.154;8.682;2022-09-23T08:31:53;100235.00;;;16.30
65569;BMP180;52211;50.154;8.682;2022-09-23T08:34:26;100236.00;;;16.40
65569;BMP180;52211;50.154;8.682;2022-09-23T08:36:53;100235.00;;;16.40
65569;BMP180;52211;50.154;8.682;2022-09-23T08:39:22;100234.00;;;16.50
65569;BMP180;52211;50.154;8.682;2022-09-23T08:44:52;100226.00;;;16.50
65569;BMP180;52211;50.154;8.682;2022-09-23T08:47:24;100232.00;;;16.60
65569;BMP180;52211;50.154;8.682;2022-09-23T08:50:14;100233.00;;;16.60
65569;BMP180;52211;50.154;8.682;2022-09-23T08:52:57;100232.00;;;16.70
65569;BMP180;52211;50.154;8.682;2022-09-23T08:55:38;100234.00;;;16.80
65569;BMP180;52211;50.154;8.682;2022-09-23T09:04:00;100230.00;;;17.00
65569;BMP180;52211;50.154;8.682;2022-09-23T09:06:43;100228.00;;;17.00
65569;BMP180;52211;50.154;8.682;2022-09-23T09:09:36;100223.00;;;17.10
65569;BMP180;52211;50.154;8.682;2022-09-23T09:12:19;100222.00;;;17.20
65569;BMP180;52211;50.154;8.682;2022-09-23T09:20:47;100214.00;;;17.50
65569;BMP180;52211;50.154;8.682;2022-09-23T09:23:32;100212.00;;;17.60
65569;BMP180;52211;50.154;8.682;2022-09-23T09:26:10;100212.00;;;17.70
65569;BMP180;52211;50.154;8.682;2022-09-23T09:28:55;100213.00;;;17.80
65569;BMP180;52211;50.154;8.682;2022-09-23T09:31:48;100219.00;;;17.90
65569;BMP180;52211;50.154;8.682;2022-09-23T09:34:37;100213.00;;;18.00
65569;BMP180;52211;50.154;8.682;2022-09-23T09:37:14;100211.00;;;18.10
65569;BMP180;52211;50.154;8.682;2022-09-23T09:39:45;100198.00;;;18.20
65569;BMP180;52211;50.154;8.682;2022-09-23T09:42:38;100204.00;;;18.30
65569;BMP180;52211;50.154;8.682;2022-09-23T09:48:12;100190.00;;;18.60
65569;BMP180;52211;50.154;8.682;2022-09-23T09:50:48;100193.00;;;18.70
65569;BMP180;52211;50.154;8.682;2022-09-23T09:53:29;100192.00;;;18.80
65569;BMP180;52211;50.154;8.682;2022-09-23T09:56:13;100181.00;;;18.90
65569;BMP180;52211;50.154;8.682;2022-09-23T09:59:24;100170.00;;;19.10
65569;BMP180;52211;50.154;8.682;2022-09-23T10:02:23;100171.00;;;19.20
65569;BMP180;52211;50.154;8.682;2022-09-23T10:05:00;100178.00;;;19.40
65569;BMP180;52211;50.154;8.682;2022-09-23T10:07:34;100177.00;;;19.50
65569;BMP180;52211;50.154;8.682;2022-09-23T10:10:19;100171.00;;;19.70
65569;BMP180;52211;50.154;8.682;2022-09-23T10:13:20;100162.00;;;19.80
65569;BMP180;52211;50.154;8.682;2022-09-23T10:15:52;100172.00;;;20.00
65569;BMP180;52211;50.154;8.682;2022-09-23T10:18:39;100170.00;;;20.10
65569;BMP180;52211;50.154;8.682;2022-09-23T10:21:20;100167.00;;;20.20
65569;BMP180;52211;50.154;8.682;2022-09-23T10:23:58;100172.00;;;20.40
65569;BMP180;52211;50.154;8.682;2022-09-23T10:26:43;100173.00;;;20.50
65569;BMP180;52211;50.154;8.682;2022-09-23T10:29:30;100172.00;;;20.60
65569;BMP180;52211;50.154;8.682;2022-09-23T10:35:19;100167.00;;;20.90
65569;BMP180;52211;50.154;8.682;2022-09-23T10:37:58;100163.00;;;21.00
65569;BMP180;52211;50.154;8.682;2022-09-23T10:40:31;100150.00;;;21.20
65569;BMP180;52211;50.154;8.682;2022-09-23T10:44:00;100166.00;;;21.30
65569;BMP180;52211;50.154;8.682;2022-09-23T10:46:37;100152.00;;;21.40
65569;BMP180;52211;50.154;8.682;2022-09-23T10:58:23;100142.00;;;22.00
65569;BMP180;52211;50.154;8.682;2022-09-23T11:13:46;100124.00;;;22.80
65569;BMP180;52211;50.154;8.682;2022-09-23T11:23:07;100118.00;;;23.30
65569;BMP180;52211;50.154;8.682;2022-09-23T11:26:07;100116.00;;;23.40
65569;BMP180;52211;50.154;8.682;2022-09-23T11:31:47;100102.00;;;23.50
65569;BMP180;52211;50.154;8.682;2022-09-23T11:35:17;100100.00;;;23.60
65569;BMP180;52211;50.154;8.682;2022-09-23T11:37:54;100103.00;;;23.70
65569;BMP180;52211;50.154;8.682;2022-09-23T11:40:32;100103.00;;;23.90
65569;BMP180;52211;50.154;8.682;2022-09-23T11:43:18;100101.00;;;24.00
65569;BMP180;52211;50.154;8.682;2022-09-23T11:45:58;100087.00;;;24.00
65569;BMP180;52211;50.154;8.682;2022-09-23T11:48:50;100082.00;;;24.10
65569;BMP180;52211;50.154;8.682;2022-09-23T11:57:49;100070.00;;;24.30
65569;BMP180;52211;50.154;8.682;2022-09-23T12:00:26;100079.00;;;24.50
65569;BMP180;52211;50.154;8.682;2022-09-23T12:03:23;100086.00;;;24.60
65569;BMP180;52211;50.154;8.682;2022-09-23T12:06:23;100080.00;;;24.70
65569;BMP180;52211;50.154;8.682;2022-09-23T12:09:02;100070.00;;;24.70
65569;BMP180;52211;50.154;8.682;2022-09-23T12:12:00;100068.00;;;24.80
65569;BMP180;52211;50.154;8.682;2022-09-23T12:15:03;100064.00;;;24.90
65569;BMP180;52211;50.154;8.682;2022-09-23T12:18:07;100061.00;;;25.00
65569;BMP180;52211;50.154;8.682;2022-09-23T12:23:53;100059.00;;;25.30
65569;BMP180;52211;50.154;8.682;2022-09-23T12:26:29;100054.00;;;25.50
65569;BMP180;52211;50.154;8.682;2022-09-23T12:29:12;100056.00;;;25.60
65569;BMP180;52211;50.154;8.682;2022-09-23T12:31:40;100050.00;;;25.80
65569;BMP180;52211;50.154;8.682;2022-09-23T12:34:28;100053.00;;;25.90
65569;BMP180;52211;50.154;8.682;2022-09-23T12:37:03;100051.00;;;26.00
65569;BMP180;52211;50.154;8.682;2022-09-23T12:39:36;100052.00;;;26.10
65569;BMP180;52211;50.154;8.682;2022-09-23T12:42:16;100041.00;;;26.30
65569;BMP180;52211;50.154;8.682;2022-09-23T12:44:49;100042.00;;;26.40
65569;BMP180;52211;50.154;8.682;2022-09-23T12:49:55;100047.00;;;26.70
65569;BMP180;52211;50.154;8.682;2022-09-23T12:52:30;100044.00;;;26.90
65569;BMP180;52211;50.154;8.682;2022-09-23T12:57:59;100027.00;;;27.50
65569;BMP180;52211;50.154;8.682;2022-09-23T13:00:33;100030.00;;;27.70
65569;BMP180;52211;50.154;8.682;2022-09-23T13:03:00;100025.00;;;27.90
65569;BMP180;52211;50.154;8.682;2022-09-23T13:05:52;100027.00;;;28.20
65569;BMP180;52211;50.154;8.682;2022-09-23T13:08:42;100024.00;;;28.60
65569;BMP180;52211;50.154;8.682;2022-09-23T13:11:29;100023.00;;;29.00
65569;BMP180;52211;50.154;8.682;2022-09-23T13:14:01;100025.00;;;29.30
65569;BMP180;52211;50.154;8.682;2022-09-23T13:16:42;100023.00;;;29.60
65569;BMP180;52211;50.154;8.682;2022-09-23T13:22:10;100025.00;;;29.90
65569;BMP180;52211;50.154;8.682;2022-09-23T13:24:45;100029.00;;;30.00
65569;BMP180;52211;50.154;8.682;2022-09-23T13:27:27;100025.00;;;30.10
65569;BMP180;52211;50.154;8.682;2022-09-23T13:30:00;100024.00;;;30.10
65569;BMP180;52211;50.154;8.682;2022-09-23T13:32:37;100014.00;;;30.10
65569;BMP180;52211;50.154;8.682;2022-09-23T13:35:33;100008.00;;;30.00
65569;BMP180;52211;50.154;8.682;2022-09-23T13:38:19;100005.00;;;29.90
65569;BMP180;52211;50.154;8.682;2022-09-23T13:40:59;99997.00;;;29.80
65569;BMP180;52211;50.154;8.682;2022-09-23T13:43:50;99986.00;;;29.70
65569;BMP180;52211;50.154;8.682;2022-09-23T13:46:24;99991.00;;;29.70
65569;BMP180;52211;50.154;8.682;2022-09-23T13:48:55;100001.00;;;29.80
65569;BMP180;52211;50.154;8.682;2022-09-23T13:51:33;99988.00;;;29.70
65569;BMP180;52211;50.154;8.682;2022-09-23T13:54:05;99989.00;;;29.70
65569;BMP180;52211;50.154;8.682;2022-09-23T13:56:35;99996.00;;;29.90
65569;BMP180;52211;50.154;8.682;2022-09-23T13:59:39;99988.00;;;29.80
65569;BMP180;52211;50.154;8.682;2022-09-23T14:02:15;99980.00;;;29.90
65569;BMP180;52211;50.154;8.682;2022-09-23T14:04:43;99976.00;;;30.10
65569;BMP180;52211;50.154;8.682;2022-09-23T14:07:17;99982.00;;;30.20
65569;BMP180;52211;50.154;8.682;2022-09-23T14:09:50;99972.00;;;30.40
65569;BMP180;52211;50.154;8.682;2022-09-23T14:12:22;99963.00;;;30.50
65569;BMP180;52211;50.154;8.682;2022-09-23T14:14:51;99959.00;;;30.60
65569;BMP180;52211;50.154;8.682;2022-09-23T14:17:21;99954.00;;;30.80
65569;BMP180;52211;50.154;8.682;2022-09-23T14:19:49;99947.00;;;30.90
65569;BMP180;52211;50.154;8.682;2022-09-23T14:22:28;99952.00;;;31.10
65569;BMP180;52211;50.154;8.682;2022-09-23T14:24:57;99952.00;;;31.20
65569;BMP180;52211;50.154;8.682;2022-09-23T14:27:32;99943.00;;;31.10
65569;BMP180;52211;50.154;8.682;2022-09-23T14:30:02;99942.00;;;30.80
65569;BMP180;52211;50.154;8.682;2022-09-23T14:32:32;99949.00;;;30.40
65569;BMP180;52211;50.154;8.682;2022-09-23T14:40:32;99937.00;;;29.40
65569;BMP180;52211;50.154;8.682;2022-09-23T14:43:25;99943.00;;;29.20
65569;BMP180;52211;50.154;8.682;2022-09-23T14:45:56;99940.00;;;29.30
65569;BMP180;52211;50.154;8.682;2022-09-23T14:51:51;99948.00;;;29.40
65569;BMP180;52211;50.154;8.682;2022-09-23T14:57:28;99947.00;;;29.10
65569;BMP180;52211;50.154;8.682;2022-09-23T15:00:21;99936.00;;;28.90
65569;BMP180;52211;50.154;8.682;2022-09-23T15:03:03;99936.00;;;28.60
65569;BMP180;52211;50.154;8.682;2022-09-23T15:05:43;99931.00;;;28.30
65569;BMP180;52211;50.154;8.682;2022-09-23T15:08:21;99933.00;;;28.00
65569;BMP180;52211;50.154;8.682;2022-09-23T15:10:52;99933.00;;;27.70
65569;BMP180;52211;50.154;8.682;2022-09-23T15:13:52;99939.00;;;27.40
65569;BMP180;52211;50.154;8.682;2022-09-23T15:16:28;99936.00;;;27.20
65569;BMP180;52211;50.154;8.682;2022-09-23T15:18:59;99924.00;;;27.00
65569;BMP180;52211;50.154;8.682;2022-09-23T15:21:43;99930.00;;;26.70
65569;BMP180;52211;50.154;8.682;2022-09-23T15:24:43;99929.00;;;26.50
65569;BMP180;52211;50.154;8.682;2022-09-23T15:27:33;99927.00;;;26.30
65569;BMP180;52211;50.154;8.682;2022-09-23T15:30:34;99927.00;;;26.10
65569;BMP180;52211;50.154;8.682;2022-09-23T15:33:00;99927.00;;;26.10
65569;BMP180;52211;50.154;8.682;2022-09-23T15:35:28;99923.00;;;26.00
65569;BMP180;52211;50.154;8.682;2022-09-23T15:37:59;99925.00;;;25.90
65569;BMP180;52211;50.154;8.682;2022-09-23T15:40:32;99923.00;;;25.80
65569;BMP180;52211;50.154;8.682;2022-09-23T15:43:24;99920.00;;;25.70
65569;BMP180;52211;50.154;8.682;2022-09-23T15:46:06;99922.00;;;25.60
65569;BMP180;52211;50.154;8.682;2022-09-23T15:48:43;99913.00;;;25.50
65569;BMP180;52211;50.154;8.682;2022-09-23T15:51:21;99914.00;;;25.40
65569;BMP180;52211;50.154;8.682;2022-09-23T15:53:48;99914.00;;;25.30
65569;BMP180;52211;50.154;8.682;2022-09-23T15:56:18;99916.00;;;25.10
65569;BMP180;52211;50.154;8.682;2022-09-23T15:58:48;99916.00;;;25.00
65569;BMP180;52211;50.154;8.682;2022-09-23T16:01:31;99907.00;;;24.90
65569;BMP180;52211;50.154;8.682;2022-09-23T16:04:02;99910.00;;;24.90
65569;BMP180;52211;50.154;8.682;2022-09-23T16:06:32;99908.00;;;24.90
65569;BMP180;52211;50.154;8.682;2022-09-23T16:09:03;99905.00;;;24.80
65569;BMP180;52211;50.154;8.682;2022-09-23T16:11:32;99915.00;;;24.80
65569;BMP180;52211;50.154;8.682;2022-09-23T16:14:00;99918.00;;;24.70
65569;BMP180;52211;50.154;8.682;2022-09-23T16:16:30;99920.00;;;24.70
65569;BMP180;52211;50.154;8.682;2022-09-23T16:18:57;99919.00;;;24.60
65569;BMP180;52211;50.154;8.682;2022-09-23T16:21:27;99910.00;;;24.50
65569;BMP180;52211;50.154;8.682;2022-09-23T16:23:54;99913.00;;;24.40
65569;BMP180;52211;50.154;8.682;2022-09-23T16:26:27;99916.00;;;24.30
65569;BMP180;52211;50.154;8.682;2022-09-23T16:28:59;99907.00;;;24.20
65569;BMP180;52211;50.154;8.682;2022-09-23T16:31:31;99901.00;;;24.10
65569;BMP180;52211;50.154;8.682;2022-09-23T16:34:03;99896.00;;;24.10
65569;BMP180;52211;50.154;8.682;2022-09-23T16:36:38;99894.00;;;24.00
65569;BMP180;52211;50.154;8.682;2022-09-23T16:39:10;99893.00;;;24.00
65569;BMP180;52211;50.154;8.682;2022-09-23T16:41:38;99896.00;;;23.90
65569;BMP180;52211;50.154;8.682;2022-09-23T16:44:09;99899.00;;;23.90
65569;BMP180;52211;50.154;8.682;2022-09-23T16:46:40;99898.00;;;23.80
65569;BMP180;52211;50.154;8.682;2022-09-23T16:49:10;99903.00;;;23.80
65569;BMP180;52211;50.154;8.682;2022-09-23T16:51:38;99901.00;;;23.70